Aviation Digital Data Service (ADDS)

Output produced by METARs form (2112 UTC 16 February 2019)
found at http://www.aviationweather.gov/metar/data/
 
Forecast for: AGGN (GIZO/NUSATUPE , SB)
Text: TAF AGGN 161710Z 1618/1718 23017KT 9999 -SHRA SCT018 BKN030 Q 1004 1006 1006 1004
Forecast period: 1800 UTC 16 February 2019 to 1800 UTC 17 February 2019
Forecast type: FROM: standard forecast or significant change
Winds: from the SW (230 degrees) at 20 MPH (17 knots; 8.7 m/s)
Visibility: 6 or more miles 10+ km)
Ceiling: 3000 feet AGL
Clouds: scattered clouds at 1800 feet AGL
broken clouds at 3000 feet AGL
Weather: -SHRA  (light rain showers)